Time,TemperatureF,DewpointF,PressureIn,WindDirection,WindDirectionDegrees,WindSpeedMPH,WindSpeedGustMPH,Humidity,HourlyPrecipIn,Conditions,Clouds,dailyrainin,SolarRadiationWatts/m^2,SoftwareType,DateUTC
2013-02-06 00:00:00,35.4,32.5,30.02,NW,319,0.0,0.0,89,0.00,,,0.00,0,Wunderground v.1.15,2013-02-06 05:00:00,
2013-02-06 00:01:00,35.5,32.6,30.02,NW,319,0.0,0.0,89,0.00,,,0.00,0,Wunderground v.1.15,2013-02-06 05:01:00,
2013-02-06 00:07:00,35.5,32.6,30.02,NW,319,0.0,0.0,89,0.00,,,0.00,0,Wunderground v.1.15,2013-02-06 05:07:00,
2013-02-06 00:13:00,35.5,32.6,30.02,NW,319,0.0,0.0,89,0.00,,,0.00,0,Wunderground v.1.15,2013-02-06 05:13:00,
2013-02-06 00:17:00,35.7,32.8,30.02,NW,319,0.0,0.0,89,0.00,,,0.00,0,Wunderground v.1.15,2013-02-06 05:17:00,
2013-02-06 00:23:00,35.7,32.8,30.02,NW,319,0.0,0.0,89,0.00,,,0.00,0,Wunderground v.1.15,2013-02-06 05:23:00,
2013-02-06 00:29:00,35.8,32.9,30.03,NW,319,0.0,0.0,89,0.00,,,0.00,0,Wunderground v.1.15,2013-02-06 05:29:00,
2013-02-06 00:34:00,36.1,33.2,30.03,NW,319,0.0,0.0,89,0.00,,,0.00,0,Wunderground v.1.15,2013-02-06 05:34:00,
2013-02-06 00:40:00,36.1,32.9,30.03,NW,319,0.0,0.0,88,0.00,,,0.00,0,Wunderground v.1.15,2013-02-06 05:40:00,
2013-02-06 00:46:00,36.2,33.0,30.02,NW,319,0.0,0.0,88,0.00,,,0.00,0,Wunderground v.1.15,2013-02-06 05:46:00,
2013-02-06 00:52:00,36.4,33.2,30.03,NW,319,0.0,0.0,88,0.00,,,0.00,0,Wunderground v.1.15,2013-02-06 05:52:00,
2013-02-06 00:57:00,36.7,33.5,30.03,NW,319,0.0,0.0,88,0.00,,,0.00,0,Wunderground v.1.15,2013-02-06 05:57:00,
2013-02-06 01:03:00,36.6,33.1,30.03,NW,319,0.0,0.0,87,0.00,,,0.00,0,Wunderground v.1.15,2013-02-06 06:03:00,
2013-02-06 01:09:00,36.8,33.6,30.03,NW,319,0.0,0.0,88,0.00,,,0.00,0,Wunderground v.1.15,2013-02-06 06:09:00,
2013-02-06 01:15:00,36.9,33.7,30.03,NW,319,0.0,0.0,88,0.00,,,0.00,0,Wunderground v.1.15,2013-02-06 06:15:00,
2013-02-06 01:20:00,36.7,33.5,30.03,NW,319,0.0,0.0,88,0.00,,,0.00,0,Wunderground v.1.15,2013-02-06 06:20:00,
2013-02-06 01:26:00,36.6,33.7,30.03,NW,319,0.0,0.0,89,0.00,,,0.00,0,Wunderground v.1.15,2013-02-06 06:26:00,
2013-02-06 01:32:00,36.7,33.5,30.03,NW,319,0.0,0.0,88,0.00,,,0.00,0,Wunderground v.1.15,2013-02-06 06:32:00,
2013-02-06 01:37:00,37.7,34.5,30.03,NW,319,0.0,0.0,88,0.00,,,0.00,0,Wunderground v.1.15,2013-02-06 06:37:00,
2013-02-06 01:43:00,38.3,34.5,30.03,NW,319,0.0,0.0,86,0.00,,,0.00,0,Wunderground v.1.15,2013-02-06 06:43:00,
2013-02-06 01:49:00,38.3,34.5,30.03,NW,319,0.0,0.0,86,0.00,,,0.00,0,Wunderground v.1.15,2013-02-06 06:49:00,
2013-02-06 01:55:00,38.3,34.2,30.03,NW,319,1.0,1.0,85,0.00,,,0.00,0,Wunderground v.1.15,2013-02-06 06:55:00,
2013-02-06 02:00:00,38.3,34.5,30.03,NW,319,0.0,0.0,86,0.00,,,0.00,0,Wunderground v.1.15,2013-02-06 07:00:00,
2013-02-06 02:05:00,38.0,34.2,30.03,NW,319,0.0,0.0,86,0.00,,,0.00,0,Wunderground v.1.15,2013-02-06 07:05:00,
2013-02-06 02:10:00,38.2,34.4,30.03,NW,319,0.0,0.0,86,0.00,,,0.00,0,Wunderground v.1.15,2013-02-06 07:10:00,
2013-02-06 02:15:00,38.4,34.3,30.03,NW,319,0.0,0.0,85,0.00,,,0.00,0,Wunderground v.1.15,2013-02-06 07:15:00,
2013-02-06 02:20:00,36.5,32.7,30.03,NW,319,0.0,0.0,86,0.00,,,0.00,0,Wunderground v.1.15,2013-02-06 07:20:00,
2013-02-06 02:25:00,36.0,33.1,30.03,NW,319,0.0,0.0,89,0.00,,,0.00,0,Wunderground v.1.15,2013-02-06 07:25:00,
2013-02-06 02:30:00,36.2,33.5,30.03,NW,319,0.0,0.0,90,0.00,,,0.00,0,Wunderground v.1.15,2013-02-06 07:30:00,
2013-02-06 02:35:00,35.5,32.9,30.03,NW,319,0.0,0.0,90,0.00,,,0.00,0,Wunderground v.1.15,2013-02-06 07:35:00,
2013-02-06 02:40:00,34.6,32.2,30.04,NW,319,0.0,0.0,91,0.00,,,0.00,0,Wunderground v.1.15,2013-02-06 07:40:00,
2013-02-06 02:45:00,34.3,32.2,30.04,NW,319,0.0,0.0,92,0.00,,,0.00,0,Wunderground v.1.15,2013-02-06 07:45:00,
2013-02-06 02:50:00,33.5,31.4,30.04,NW,319,0.0,0.0,92,0.00,,,0.00,0,Wunderground v.1.15,2013-02-06 07:50:00,
2013-02-06 02:55:00,33.1,31.0,30.04,NW,319,0.0,0.0,92,0.00,,,0.00,0,Wunderground v.1.15,2013-02-06 07:55:00,
2013-02-06 03:00:00,33.1,31.3,30.04,NW,319,0.0,0.0,93,0.00,,,0.00,0,Wunderground v.1.15,2013-02-06 08:00:00,
2013-02-06 03:05:00,33.2,31.4,30.04,NW,319,0.0,0.0,93,0.00,,,0.00,0,Wunderground v.1.15,2013-02-06 08:05:00,
2013-02-06 03:10:00,33.0,31.2,30.04,NW,319,0.0,0.0,93,0.00,,,0.00,0,Wunderground v.1.15,2013-02-06 08:10:00,
2013-02-06 03:15:00,32.8,31.3,30.04,NW,319,0.0,0.0,94,0.00,,,0.00,0,Wunderground v.1.15,2013-02-06 08:15:00,
2013-02-06 03:20:00,32.6,31.1,30.04,NW,319,0.0,0.0,94,0.00,,,0.00,0,Wunderground v.1.15,2013-02-06 08:20:00,
2013-02-06 03:25:00,32.6,31.1,30.04,NW,319,0.0,0.0,94,0.00,,,0.00,0,Wunderground v.1.15,2013-02-06 08:25:00,
2013-02-06 03:30:00,32.1,30.3,30.04,NW,319,0.0,0.0,93,0.00,,,0.00,0,Wunderground v.1.15,2013-02-06 08:30:00,
2013-02-06 03:35:00,32.0,30.5,30.04,NW,319,0.0,0.0,94,0.00,,,0.00,0,Wunderground v.1.15,2013-02-06 08:35:00,
2013-02-06 03:41:00,31.7,30.2,30.04,NW,319,0.0,0.0,94,0.00,,,0.00,0,Wunderground v.1.15,2013-02-06 08:41:00,
2013-02-06 03:45:00,31.7,30.2,30.04,NW,319,0.0,0.0,94,0.00,,,0.00,0,Wunderground v.1.15,2013-02-06 08:45:00,
2013-02-06 03:50:00,31.6,30.1,30.05,NW,319,0.0,1.0,94,0.00,,,0.00,0,Wunderground v.1.15,2013-02-06 08:50:00,
2013-02-06 03:56:00,31.5,30.0,30.05,NW,319,0.0,1.0,94,0.00,,,0.00,0,Wunderground v.1.15,2013-02-06 08:56:00,
2013-02-06 04:00:00,30.5,29.0,30.05,NW,319,0.0,0.0,94,0.00,,,0.00,0,Wunderground v.1.15,2013-02-06 09:00:00,
2013-02-06 04:05:00,30.5,29.0,30.05,NW,319,0.0,0.0,94,0.00,,,0.00,0,Wunderground v.1.15,2013-02-06 09:05:00,
2013-02-06 04:11:00,30.6,29.1,30.05,NW,319,0.0,0.0,94,0.00,,,0.00,0,Wunderground v.1.15,2013-02-06 09:11:00,
2013-02-06 04:16:00,30.3,28.8,30.05,NW,319,0.0,0.0,94,0.00,,,0.00,0,Wunderground v.1.15,2013-02-06 09:16:00,
2013-02-06 04:21:00,30.3,28.8,30.06,NW,319,0.0,1.0,94,0.00,,,0.00,0,Wunderground v.1.15,2013-02-06 09:21:00,
2013-02-06 04:26:00,30.4,28.9,30.06,NW,319,1.0,2.0,94,0.00,,,0.00,0,Wunderground v.1.15,2013-02-06 09:26:00,
2013-02-06 04:31:00,30.6,29.3,30.06,NW,319,0.0,0.0,95,0.00,,,0.00,0,Wunderground v.1.15,2013-02-06 09:31:00,
2013-02-06 04:36:00,29.9,28.4,30.06,NW,319,0.0,0.0,94,0.00,,,0.00,0,Wunderground v.1.15,2013-02-06 09:36:00,
2013-02-06 04:41:00,29.6,28.1,30.07,NW,319,0.0,0.0,94,0.00,,,0.00,0,Wunderground v.1.15,2013-02-06 09:41:00,
2013-02-06 04:46:00,29.7,28.2,30.07,NW,319,0.0,0.0,94,0.00,,,0.00,0,Wunderground v.1.15,2013-02-06 09:46:00,
2013-02-06 04:51:00,29.6,28.1,30.07,NW,319,0.0,0.0,94,0.00,,,0.00,0,Wunderground v.1.15,2013-02-06 09:51:00,
2013-02-06 04:56:00,29.5,28.0,30.08,NW,319,0.0,0.0,94,0.00,,,0.00,0,Wunderground v.1.15,2013-02-06 09:56:00,
2013-02-06 05:01:00,29.7,28.2,30.08,NW,319,0.0,1.0,94,0.00,,,0.00,0,Wunderground v.1.15,2013-02-06 10:01:00,
2013-02-06 05:06:00,29.7,28.2,30.08,NW,319,0.0,1.0,94,0.00,,,0.00,0,Wunderground v.1.15,2013-02-06 10:06:00,
2013-02-06 05:11:00,29.7,28.2,30.08,NW,319,0.0,0.0,94,0.00,,,0.00,0,Wunderground v.1.15,2013-02-06 10:11:00,
2013-02-06 05:16:00,29.6,28.1,30.08,NW,319,0.0,0.0,94,0.00,,,0.00,0,Wunderground v.1.15,2013-02-06 10:16:00,
2013-02-06 05:21:00,30.0,28.7,30.08,NW,319,0.0,0.0,95,0.00,,,0.00,0,Wunderground v.1.15,2013-02-06 10:21:00,
2013-02-06 05:26:00,29.4,27.9,30.09,NW,319,0.0,0.0,94,0.00,,,0.00,0,Wunderground v.1.15,2013-02-06 10:26:00,
2013-02-06 05:31:00,29.1,27.6,30.09,NW,319,0.0,0.0,94,0.00,,,0.00,0,Wunderground v.1.15,2013-02-06 10:31:00,
2013-02-06 05:36:00,29.6,28.3,30.09,NW,319,0.0,1.0,95,0.00,,,0.00,0,Wunderground v.1.15,2013-02-06 10:36:00,
2013-02-06 05:41:00,29.8,28.5,30.09,NW,319,0.0,1.0,95,0.00,,,0.00,0,Wunderground v.1.15,2013-02-06 10:41:00,
2013-02-06 05:46:00,29.4,27.9,30.10,NW,319,0.0,2.0,94,0.00,,,0.00,0,Wunderground v.1.15,2013-02-06 10:46:00,
2013-02-06 05:51:00,29.4,27.9,30.10,NW,319,0.0,0.0,94,0.00,,,0.00,0,Wunderground v.1.15,2013-02-06 10:51:00,
2013-02-06 05:57:00,29.9,28.6,30.10,NW,319,0.0,0.0,95,0.00,,,0.00,0,Wunderground v.1.15,2013-02-06 10:57:00,
2013-02-06 06:01:00,29.8,28.5,30.11,NW,319,0.0,0.0,95,0.00,,,0.00,0,Wunderground v.1.15,2013-02-06 11:01:00,
2013-02-06 06:07:00,31.7,30.4,30.11,NW,319,0.0,0.0,95,0.00,,,0.00,0,Wunderground v.1.15,2013-02-06 11:07:00,
2013-02-06 06:12:00,31.1,29.6,30.12,NW,319,0.0,0.0,94,0.00,,,0.00,0,Wunderground v.1.15,2013-02-06 11:12:00,
2013-02-06 06:17:00,30.5,29.0,30.12,NW,319,0.0,1.0,94,0.00,,,0.00,0,Wunderground v.1.15,2013-02-06 11:17:00,
2013-02-06 06:22:00,30.1,28.6,30.12,NW,319,0.0,0.0,94,0.00,,,0.00,0,Wunderground v.1.15,2013-02-06 11:22:00,
2013-02-06 06:27:00,29.8,28.3,30.12,NW,319,0.0,0.0,94,0.00,,,0.00,0,Wunderground v.1.15,2013-02-06 11:27:00,
2013-02-06 06:32:00,29.1,27.3,30.13,NW,319,0.0,0.0,93,0.00,,,0.00,0,Wunderground v.1.15,2013-02-06 11:32:00,
2013-02-06 06:37:00,29.5,28.0,30.13,NW,319,0.0,1.0,94,0.00,,,0.00,0,Wunderground v.1.15,2013-02-06 11:37:00,
2013-02-06 06:42:00,29.3,27.8,30.14,NW,319,0.0,0.0,94,0.00,,,0.00,0,Wunderground v.1.15,2013-02-06 11:42:00,
2013-02-06 06:47:00,29.0,27.5,30.14,NW,319,0.0,0.0,94,0.00,,,0.00,0,Wunderground v.1.15,2013-02-06 11:47:00,
2013-02-06 06:52:00,29.5,28.2,30.14,NW,319,0.0,0.0,95,0.00,,,0.00,0,Wunderground v.1.15,2013-02-06 11:52:00,
2013-02-06 06:57:00,29.3,27.8,30.14,NW,319,0.0,0.0,94,0.00,,,0.00,0,Wunderground v.1.15,2013-02-06 11:57:00,
2013-02-06 07:02:00,29.1,27.6,30.15,NW,319,0.0,0.0,94,0.00,,,0.00,0,Wunderground v.1.15,2013-02-06 12:02:00,
2013-02-06 07:07:00,28.7,27.2,30.15,NW,319,0.0,0.0,94,0.00,,,0.00,5,Wunderground v.1.15,2013-02-06 12:07:00,
2013-02-06 07:12:00,29.4,28.1,30.15,NW,319,0.0,0.0,95,0.00,,,0.00,7,Wunderground v.1.15,2013-02-06 12:12:00,
2013-02-06 07:17:00,29.7,28.4,30.15,NW,319,1.0,2.0,95,0.00,,,0.00,11,Wunderground v.1.15,2013-02-06 12:17:00,
2013-02-06 07:22:00,29.9,28.4,30.16,NW,319,0.0,0.0,94,0.00,,,0.00,12,Wunderground v.1.15,2013-02-06 12:22:00,
2013-02-06 07:27:00,30.5,29.0,30.16,NW,319,0.0,0.0,94,0.00,,,0.00,16,Wunderground v.1.15,2013-02-06 12:27:00,
2013-02-06 07:32:00,30.3,28.5,30.16,NW,319,0.0,0.0,93,0.00,,,0.00,47,Wunderground v.1.15,2013-02-06 12:32:00,
2013-02-06 07:37:00,29.6,27.8,30.16,NW,319,0.0,0.0,93,0.00,,,0.00,76,Wunderground v.1.15,2013-02-06 12:37:00,
2013-02-06 07:42:00,29.5,28.0,30.16,NW,319,0.0,0.0,94,0.00,,,0.00,93,Wunderground v.1.15,2013-02-06 12:42:00,
2013-02-06 07:47:00,30.0,28.5,30.17,NW,319,0.0,0.0,94,0.00,,,0.00,76,Wunderground v.1.15,2013-02-06 12:47:00,
2013-02-06 07:52:00,32.6,31.3,30.18,NW,311,0.0,0.0,95,0.00,,,0.00,128,Wunderground v.1.15,2013-02-06 12:52:00,
2013-02-06 07:57:00,35.7,33.6,30.18,NNW,331,2.0,3.0,92,0.00,,,0.00,149,Wunderground v.1.15,2013-02-06 12:57:00,
2013-02-06 08:02:00,37.1,33.6,30.19,NNW,335,3.0,3.0,87,0.00,,,0.00,167,Wunderground v.1.15,2013-02-06 13:02:00,
2013-02-06 08:07:00,38.0,33.6,30.19,West,272,0.0,4.0,84,0.00,,,0.00,185,Wunderground v.1.15,2013-02-06 13:07:00,
2013-02-06 08:12:00,38.6,33.9,30.19,WNW,298,0.0,4.0,83,0.00,,,0.00,200,Wunderground v.1.15,2013-02-06 13:12:00,
2013-02-06 08:17:00,40.8,34.8,30.19,NW,311,0.0,6.0,79,0.00,,,0.00,223,Wunderground v.1.15,2013-02-06 13:17:00,
2013-02-06 08:22:00,42.4,35.4,30.20,WNW,287,3.0,3.0,76,0.00,,,0.00,243,Wunderground v.1.15,2013-02-06 13:22:00,
2013-02-06 08:27:00,43.6,35.5,30.20,NW,323,0.0,3.0,73,0.00,,,0.00,258,Wunderground v.1.15,2013-02-06 13:27:00,
2013-02-06 08:32:00,43.7,35.3,30.20,NW,308,0.0,2.0,72,0.00,,,0.00,272,Wunderground v.1.15,2013-02-06 13:32:00,
2013-02-06 08:37:00,44.3,35.8,30.20,West,272,0.0,2.0,72,0.00,,,0.00,288,Wunderground v.1.15,2013-02-06 13:37:00,
2013-02-06 08:42:00,45.1,35.9,30.21,NW,308,0.0,3.0,70,0.00,,,0.00,301,Wunderground v.1.15,2013-02-06 13:42:00,
2013-02-06 08:47:00,45.4,35.8,30.21,NW,315,2.0,3.0,69,0.00,,,0.00,315,Wunderground v.1.15,2013-02-06 13:47:00,
2013-02-06 08:52:00,46.1,36.1,30.21,WSW,244,2.0,5.0,68,0.00,,,0.00,330,Wunderground v.1.15,2013-02-06 13:52:00,
2013-02-06 08:57:00,46.8,36.0,30.21,WNW,300,0.0,5.0,66,0.00,,,0.00,346,Wunderground v.1.15,2013-02-06 13:57:00,
2013-02-06 09:02:00,47.3,35.7,30.21,NW,320,1.0,5.0,64,0.00,,,0.00,364,Wunderground v.1.15,2013-02-06 14:02:00,
2013-02-06 09:07:00,47.9,35.9,30.22,WNW,296,0.0,5.0,63,0.00,,,0.00,378,Wunderground v.1.15,2013-02-06 14:07:00,
2013-02-06 09:12:00,48.3,35.9,30.21,NNW,340,0.0,3.0,62,0.00,,,0.00,394,Wunderground v.1.15,2013-02-06 14:12:00,
2013-02-06 09:17:00,48.8,36.4,30.21,SSW,196,0.0,4.0,62,0.00,,,0.00,406,Wunderground v.1.15,2013-02-06 14:17:00,
2013-02-06 09:22:00,49.2,35.5,30.21,North,355,3.0,4.0,59,0.00,,,0.00,420,Wunderground v.1.15,2013-02-06 14:22:00,
2013-02-06 09:27:00,49.4,35.2,30.22,NNW,342,2.0,4.0,58,0.00,,,0.00,434,Wunderground v.1.15,2013-02-06 14:27:00,
2013-02-06 09:32:00,49.8,35.6,30.21,NNE,32,1.0,4.0,58,0.00,,,0.00,446,Wunderground v.1.15,2013-02-06 14:32:00,
2013-02-06 09:37:00,50.0,34.0,30.21,NW,325,2.0,10.0,54,0.00,,,0.00,459,Wunderground v.1.15,2013-02-06 14:37:00,
2013-02-06 09:42:00,50.3,34.3,30.21,NW,321,4.0,6.0,54,0.00,,,0.00,471,Wunderground v.1.15,2013-02-06 14:42:00,
2013-02-06 09:47:00,50.7,34.2,30.22,WSW,247,2.0,6.0,53,0.00,,,0.00,483,Wunderground v.1.15,2013-02-06 14:47:00,
2013-02-06 09:52:00,51.4,33.9,30.22,North,5,2.0,8.0,51,0.00,,,0.00,494,Wunderground v.1.15,2013-02-06 14:52:00,
2013-02-06 09:57:00,51.4,33.4,30.22,NW,311,1.0,12.0,50,0.00,,,0.00,506,Wunderground v.1.15,2013-02-06 14:57:00,
2013-02-06 10:02:00,51.8,33.7,30.22,NW,314,1.0,7.0,50,0.00,,,0.00,517,Wunderground v.1.15,2013-02-06 15:02:00,
2013-02-06 10:07:00,52.0,33.4,30.23,West,276,0.0,7.0,49,0.00,,,0.00,526,Wunderground v.1.15,2013-02-06 15:07:00,
2013-02-06 10:13:00,52.3,33.2,30.22,North,5,3.0,6.0,48,0.00,,,0.00,538,Wunderground v.1.15,2013-02-06 15:13:00,
2013-02-06 10:18:00,52.6,32.9,30.23,NNW,341,3.0,6.0,47,0.00,,,0.00,548,Wunderground v.1.15,2013-02-06 15:18:00,
2013-02-06 10:23:00,52.4,32.7,30.23,West,281,2.0,9.0,47,0.00,,,0.00,557,Wunderground v.1.15,2013-02-06 15:23:00,
2013-02-06 10:28:00,52.5,32.8,30.23,NW,307,2.0,12.0,47,0.00,,,0.00,564,Wunderground v.1.15,2013-02-06 15:28:00,
2013-02-06 10:33:00,52.9,32.7,30.23,West,267,2.0,6.0,46,0.00,,,0.00,578,Wunderground v.1.15,2013-02-06 15:33:00,
2013-02-06 10:38:00,53.3,32.5,30.24,WNW,295,4.0,12.0,45,0.00,,,0.00,584,Wunderground v.1.15,2013-02-06 15:38:00,
2013-02-06 10:43:00,53.3,32.5,30.24,WNW,284,3.0,8.0,45,0.00,,,0.00,587,Wunderground v.1.15,2013-02-06 15:43:00,
2013-02-06 10:48:00,53.0,32.8,30.24,WNW,285,4.0,10.0,46,0.00,,,0.00,594,Wunderground v.1.15,2013-02-06 15:48:00,
2013-02-06 10:53:00,52.9,32.1,30.24,West,277,3.0,9.0,45,0.00,,,0.00,603,Wunderground v.1.15,2013-02-06 15:53:00,
2013-02-06 10:58:00,53.2,32.9,30.24,NW,315,3.0,9.0,46,0.00,,,0.00,612,Wunderground v.1.15,2013-02-06 15:58:00,
2013-02-06 11:03:00,53.0,32.2,30.24,SW,232,3.0,10.0,45,0.00,,,0.00,617,Wunderground v.1.15,2013-02-06 16:03:00,
2013-02-06 11:08:00,53.1,32.3,30.23,NNE,27,4.0,14.0,45,0.00,,,0.00,621,Wunderground v.1.15,2013-02-06 16:08:00,
2013-02-06 11:13:00,53.5,32.1,30.24,North,351,1.0,10.0,44,0.00,,,0.00,624,Wunderground v.1.15,2013-02-06 16:13:00,
2013-02-06 11:18:00,53.6,32.8,30.24,NW,322,0.0,10.0,45,0.00,,,0.00,631,Wunderground v.1.15,2013-02-06 16:18:00,
2013-02-06 11:23:00,53.9,33.6,30.24,NW,315,1.0,11.0,46,0.00,,,0.00,633,Wunderground v.1.15,2013-02-06 16:23:00,
2013-02-06 11:28:00,54.1,32.1,30.23,SW,229,4.0,11.0,43,0.00,,,0.00,640,Wunderground v.1.15,2013-02-06 16:28:00,
2013-02-06 11:33:00,53.9,33.0,30.23,NNW,337,3.0,4.0,45,0.00,,,0.00,642,Wunderground v.1.15,2013-02-06 16:33:00,
2013-02-06 11:38:00,54.2,32.7,30.23,WNW,298,0.0,10.0,44,0.00,,,0.00,647,Wunderground v.1.15,2013-02-06 16:38:00,
2013-02-06 11:43:00,55.3,33.7,30.22,West,279,4.0,4.0,44,0.00,,,0.00,652,Wunderground v.1.15,2013-02-06 16:43:00,
2013-02-06 11:48:00,54.5,32.4,30.22,West,259,3.0,5.0,43,0.00,,,0.00,654,Wunderground v.1.15,2013-02-06 16:48:00,
2013-02-06 11:53:00,54.2,32.7,30.22,West,270,3.0,7.0,44,0.00,,,0.00,656,Wunderground v.1.15,2013-02-06 16:53:00,
2013-02-06 11:58:00,54.7,31.4,30.23,NNW,331,2.0,7.0,41,0.00,,,0.00,654,Wunderground v.1.15,2013-02-06 16:58:00,
2013-02-06 12:03:00,54.9,31.6,30.23,NW,304,1.0,6.0,41,0.00,,,0.00,650,Wunderground v.1.15,2013-02-06 17:03:00,
2013-02-06 12:08:00,55.1,32.4,30.23,WNW,284,1.0,6.0,42,0.00,,,0.00,647,Wunderground v.1.15,2013-02-06 17:08:00,
2013-02-06 12:13:00,54.9,32.8,30.24,North,5,5.0,7.0,43,0.00,,,0.00,647,Wunderground v.1.15,2013-02-06 17:13:00,
2013-02-06 12:18:00,55.8,33.6,30.24,WNW,287,3.0,7.0,43,0.00,,,0.00,643,Wunderground v.1.15,2013-02-06 17:18:00,
2013-02-06 12:23:00,56.0,33.2,30.23,NNW,348,1.0,6.0,42,0.00,,,0.00,647,Wunderground v.1.15,2013-02-06 17:23:00,
2013-02-06 12:28:00,55.8,32.4,30.23,NNW,344,3.0,9.0,41,0.00,,,0.00,643,Wunderground v.1.15,2013-02-06 17:28:00,
2013-02-06 12:33:00,55.4,32.1,30.23,NNW,332,1.0,9.0,41,0.00,,,0.00,640,Wunderground v.1.15,2013-02-06 17:33:00,
2013-02-06 12:38:00,55.4,31.5,30.23,NW,306,2.0,14.0,40,0.00,,,0.00,638,Wunderground v.1.15,2013-02-06 17:38:00,
2013-02-06 12:43:00,56.2,31.5,30.22,NNW,335,5.0,7.0,39,0.00,,,0.00,640,Wunderground v.1.15,2013-02-06 17:43:00,
2013-02-06 12:48:00,55.2,30.7,30.22,NE,35,5.0,7.0,39,0.00,,,0.00,636,Wunderground v.1.15,2013-02-06 17:48:00,
2013-02-06 12:53:00,56.0,32.6,30.22,NNW,336,1.0,10.0,41,0.00,,,0.00,635,Wunderground v.1.15,2013-02-06 17:53:00,
2013-02-06 12:58:00,56.0,31.4,30.22,SW,217,3.0,10.0,39,0.00,,,0.00,629,Wunderground v.1.15,2013-02-06 17:58:00,
2013-02-06 13:03:00,55.9,31.3,30.22,NNE,17,4.0,6.0,39,0.00,,,0.00,622,Wunderground v.1.15,2013-02-06 18:03:00,
2013-02-06 13:08:00,56.1,32.1,30.23,North,11,5.0,10.0,40,0.00,,,0.00,617,Wunderground v.1.15,2013-02-06 18:08:00,
2013-02-06 13:13:00,56.3,31.6,30.23,NW,306,7.0,9.0,39,0.00,,,0.00,615,Wunderground v.1.15,2013-02-06 18:13:00,
2013-02-06 13:19:00,56.3,31.0,30.23,NW,325,3.0,11.0,38,0.00,,,0.00,606,Wunderground v.1.15,2013-02-06 18:19:00,
2013-02-06 13:24:00,56.3,31.6,30.23,WNW,286,6.0,7.0,39,0.00,,,0.00,603,Wunderground v.1.15,2013-02-06 18:24:00,
2013-02-06 13:29:00,56.0,29.4,30.22,North,11,4.0,7.0,36,0.00,,,0.00,596,Wunderground v.1.15,2013-02-06 18:29:00,
2013-02-06 13:34:00,56.4,30.4,30.22,NNE,26,3.0,10.0,37,0.00,,,0.00,585,Wunderground v.1.15,2013-02-06 18:34:00,
2013-02-06 13:39:00,56.5,29.8,30.22,North,5,5.0,10.0,36,0.00,,,0.00,584,Wunderground v.1.15,2013-02-06 18:39:00,
2013-02-06 13:44:00,55.5,29.6,30.22,North,350,1.0,7.0,37,0.00,,,0.00,573,Wunderground v.1.15,2013-02-06 18:44:00,
2013-02-06 13:49:00,56.2,29.6,30.22,NNE,24,4.0,7.0,36,0.00,,,0.00,566,Wunderground v.1.15,2013-02-06 18:49:00,
2013-02-06 13:54:00,56.7,31.4,30.22,WNW,287,1.0,7.0,38,0.00,,,0.00,559,Wunderground v.1.15,2013-02-06 18:54:00,
2013-02-06 13:59:00,57.4,31.3,30.22,NNW,345,2.0,8.0,37,0.00,,,0.00,550,Wunderground v.1.15,2013-02-06 18:59:00,
2013-02-06 14:04:00,56.4,29.1,30.22,West,267,1.0,7.0,35,0.00,,,0.00,540,Wunderground v.1.15,2013-02-06 19:04:00,
2013-02-06 14:09:00,56.7,30.0,30.22,WSW,245,0.0,10.0,36,0.00,,,0.00,529,Wunderground v.1.15,2013-02-06 19:09:00,
2013-02-06 14:14:00,56.6,29.9,30.21,NNE,13,7.0,7.0,36,0.00,,,0.00,517,Wunderground v.1.15,2013-02-06 19:14:00,
2013-02-06 14:19:00,57.1,29.7,30.21,NNE,15,3.0,7.0,35,0.00,,,0.00,504,Wunderground v.1.15,2013-02-06 19:19:00,
2013-02-06 14:24:00,56.6,29.9,30.21,NW,325,5.0,11.0,36,0.00,,,0.00,499,Wunderground v.1.15,2013-02-06 19:24:00,
2013-02-06 14:29:00,56.1,29.5,30.21,NE,44,5.0,11.0,36,0.00,,,0.00,487,Wunderground v.1.15,2013-02-06 19:29:00,
2013-02-06 14:34:00,57.1,31.0,30.21,WNW,291,1.0,5.0,37,0.00,,,0.00,475,Wunderground v.1.15,2013-02-06 19:34:00,
2013-02-06 14:39:00,57.3,31.2,30.21,North,355,6.0,9.0,37,0.00,,,0.00,459,Wunderground v.1.15,2013-02-06 19:39:00,
2013-02-06 14:44:00,56.8,30.1,30.21,NNW,345,3.0,5.0,36,0.00,,,0.00,452,Wunderground v.1.15,2013-02-06 19:44:00,
2013-02-06 14:49:00,56.9,30.9,30.22,NW,320,3.0,8.0,37,0.00,,,0.00,438,Wunderground v.1.15,2013-02-06 19:49:00,
2013-02-06 14:54:00,57.4,30.6,30.22,WNW,294,2.0,10.0,36,0.00,,,0.00,424,Wunderground v.1.15,2013-02-06 19:54:00,
2013-02-06 14:59:00,57.2,31.1,30.22,NNW,348,3.0,10.0,37,0.00,,,0.00,411,Wunderground v.1.15,2013-02-06 19:59:00,
2013-02-06 15:04:00,56.8,30.1,30.22,North,360,3.0,7.0,36,0.00,,,0.00,399,Wunderground v.1.15,2013-02-06 20:04:00,
2013-02-06 15:09:00,56.5,29.8,30.22,North,355,5.0,7.0,36,0.00,,,0.00,387,Wunderground v.1.15,2013-02-06 20:09:00,
2013-02-06 15:14:00,57.0,30.3,30.22,NNW,336,6.0,6.0,36,0.00,,,0.00,374,Wunderground v.1.15,2013-02-06 20:14:00,
2013-02-06 15:19:00,56.7,30.0,30.22,NNE,23,6.0,7.0,36,0.00,,,0.00,359,Wunderground v.1.15,2013-02-06 20:19:00,
2013-02-06 15:24:00,56.4,28.3,30.22,North,360,5.0,11.0,34,0.00,,,0.00,346,Wunderground v.1.15,2013-02-06 20:24:00,
2013-02-06 15:29:00,56.5,29.1,30.22,NNW,332,1.0,11.0,35,0.00,,,0.00,330,Wunderground v.1.15,2013-02-06 20:29:00,
2013-02-06 15:34:00,56.7,29.3,30.22,NNW,336,4.0,6.0,35,0.00,,,0.00,318,Wunderground v.1.15,2013-02-06 20:34:00,
2013-02-06 15:39:00,56.7,28.6,30.22,WNW,294,1.0,6.0,34,0.00,,,0.00,308,Wunderground v.1.15,2013-02-06 20:39:00,
2013-02-06 15:44:00,57.0,29.6,30.22,NNW,327,3.0,9.0,35,0.00,,,0.00,288,Wunderground v.1.15,2013-02-06 20:44:00,
2013-02-06 15:49:00,56.8,27.2,30.22,WNW,300,0.0,9.0,32,0.00,,,0.00,271,Wunderground v.1.15,2013-02-06 20:49:00,
2013-02-06 15:54:00,56.7,27.1,30.22,NNW,346,0.0,4.0,32,0.00,,,0.00,250,Wunderground v.1.15,2013-02-06 20:54:00,
2013-02-06 15:59:00,56.8,27.2,30.22,North,355,2.0,4.0,32,0.00,,,0.00,229,Wunderground v.1.15,2013-02-06 20:59:00,
2013-02-06 16:04:00,57.0,28.9,30.22,NW,313,5.0,7.0,34,0.00,,,0.00,211,Wunderground v.1.15,2013-02-06 21:04:00,
2013-02-06 16:09:00,56.7,29.3,30.22,NW,308,1.0,7.0,35,0.00,,,0.00,190,Wunderground v.1.15,2013-02-06 21:09:00,
2013-02-06 16:14:00,56.9,28.8,30.23,WNW,298,1.0,2.0,34,0.00,,,0.00,174,Wunderground v.1.15,2013-02-06 21:14:00,
2013-02-06 16:19:00,56.4,28.3,30.23,WNW,297,3.0,7.0,34,0.00,,,0.00,153,Wunderground v.1.15,2013-02-06 21:19:00,
2013-02-06 16:24:00,56.1,28.1,30.23,West,279,2.0,4.0,34,0.00,,,0.00,134,Wunderground v.1.15,2013-02-06 21:24:00,
2013-02-06 16:51:00,55.3,28.8,30.24,West,277,0.0,1.0,36,0.00,,,0.00,51,Wunderground v.1.15,2013-02-06 21:51:00,
2013-02-06 16:56:00,55.0,30.5,30.24,NW,306,0.0,3.0,39,0.00,,,0.00,37,Wunderground v.1.15,2013-02-06 21:56:00,
2013-02-06 17:01:00,54.9,29.1,30.24,NNW,340,1.0,2.0,37,0.00,,,0.00,28,Wunderground v.1.15,2013-02-06 22:01:00,
2013-02-06 17:06:00,54.5,28.1,30.25,West,269,2.0,3.0,36,0.00,,,0.00,25,Wunderground v.1.15,2013-02-06 22:06:00,
2013-02-06 17:11:00,54.2,28.5,30.25,WNW,291,1.0,3.0,37,0.00,,,0.00,23,Wunderground v.1.15,2013-02-06 22:11:00,
2013-02-06 17:16:00,53.8,28.8,30.25,WNW,303,1.0,4.0,38,0.00,,,0.00,21,Wunderground v.1.15,2013-02-06 22:16:00,
2013-02-06 17:21:00,53.2,28.9,30.25,NW,321,2.0,2.0,39,0.00,,,0.00,19,Wunderground v.1.15,2013-02-06 22:21:00,
2013-02-06 17:26:00,52.7,29.0,30.25,NNW,333,0.0,2.0,40,0.00,,,0.00,16,Wunderground v.1.15,2013-02-06 22:26:00,
2013-02-06 17:31:00,52.2,28.6,30.25,NNW,335,0.0,2.0,40,0.00,,,0.00,12,Wunderground v.1.15,2013-02-06 22:31:00,
2013-02-06 17:36:00,51.7,28.7,30.25,NNW,335,0.0,2.0,41,0.00,,,0.00,11,Wunderground v.1.15,2013-02-06 22:36:00,
2013-02-06 17:41:00,51.4,29.1,30.26,NNW,335,0.0,1.0,42,0.00,,,0.00,7,Wunderground v.1.15,2013-02-06 22:41:00,
2013-02-06 17:46:00,50.3,29.7,30.26,NNW,335,0.0,1.0,45,0.00,,,0.00,5,Wunderground v.1.15,2013-02-06 22:46:00,
2013-02-06 17:51:00,49.7,29.7,30.27,NNW,335,0.0,0.0,46,0.00,,,0.00,0,Wunderground v.1.15,2013-02-06 22:51:00,
2013-02-06 17:56:00,48.8,30.0,30.27,NNW,335,0.0,1.0,48,0.00,,,0.00,0,Wunderground v.1.15,2013-02-06 22:56:00,
2013-02-06 18:01:00,47.6,29.9,30.27,NNW,335,0.0,1.0,50,0.00,,,0.00,0,Wunderground v.1.15,2013-02-06 23:01:00,
2013-02-06 18:06:00,47.1,29.4,30.27,NNW,335,0.0,1.0,50,0.00,,,0.00,0,Wunderground v.1.15,2013-02-06 23:06:00,
2013-02-06 18:11:00,45.8,30.5,30.28,NNW,335,0.0,0.0,55,0.00,,,0.00,0,Wunderground v.1.15,2013-02-06 23:11:00,
2013-02-06 18:16:00,44.9,30.6,30.28,NNW,335,0.0,1.0,57,0.00,,,0.00,0,Wunderground v.1.15,2013-02-06 23:16:00,
2013-02-06 18:21:00,43.8,30.8,30.28,NNW,335,0.0,1.0,60,0.00,,,0.00,0,Wunderground v.1.15,2013-02-06 23:21:00,
2013-02-06 18:26:00,42.9,30.8,30.28,NNW,335,0.0,2.0,62,0.00,,,0.00,0,Wunderground v.1.15,2013-02-06 23:26:00,
2013-02-06 18:31:00,42.5,30.8,30.29,NW,322,0.0,2.0,63,0.00,,,0.00,0,Wunderground v.1.15,2013-02-06 23:31:00,
2013-02-06 18:36:00,42.4,30.7,30.29,NW,322,0.0,2.0,63,0.00,,,0.00,0,Wunderground v.1.15,2013-02-06 23:36:00,
2013-02-06 18:41:00,42.3,30.6,30.29,NW,322,0.0,0.0,63,0.00,,,0.00,0,Wunderground v.1.15,2013-02-06 23:41:00,
2013-02-06 18:46:00,42.4,30.3,30.29,NW,322,0.0,1.0,62,0.00,,,0.00,0,Wunderground v.1.15,2013-02-06 23:46:00,
2013-02-06 18:52:00,41.2,30.3,30.29,NW,322,0.0,0.0,65,0.00,,,0.00,0,Wunderground v.1.15,2013-02-06 23:52:00,
2013-02-06 18:56:00,40.8,30.3,30.29,NW,322,0.0,1.0,66,0.00,,,0.00,0,Wunderground v.1.15,2013-02-06 23:56:00,
2013-02-06 19:02:00,40.5,30.8,30.29,NW,322,0.0,0.0,68,0.00,,,0.00,0,Wunderground v.1.15,2013-02-07 00:02:00,
2013-02-06 19:07:00,40.5,30.0,30.29,NW,322,1.0,1.0,66,0.00,,,0.00,0,Wunderground v.1.15,2013-02-07 00:07:00,
2013-02-06 19:12:00,40.5,30.0,30.29,NW,322,0.0,0.0,66,0.00,,,0.00,0,Wunderground v.1.15,2013-02-07 00:12:00,
2013-02-06 19:17:00,38.6,30.0,30.29,NW,322,0.0,0.0,71,0.00,,,0.00,0,Wunderground v.1.15,2013-02-07 00:17:00,
2013-02-06 19:22:00,38.6,30.0,30.30,NW,322,0.0,0.0,71,0.00,,,0.00,0,Wunderground v.1.15,2013-02-07 00:22:00,
2013-02-06 19:27:00,39.0,30.4,30.30,NW,322,0.0,0.0,71,0.00,,,0.00,0,Wunderground v.1.15,2013-02-07 00:27:00,
2013-02-06 19:32:00,39.1,30.1,30.30,NW,322,0.0,0.0,70,0.00,,,0.00,0,Wunderground v.1.15,2013-02-07 00:32:00,
2013-02-06 19:37:00,37.6,29.7,30.30,NW,322,0.0,1.0,73,0.00,,,0.00,0,Wunderground v.1.15,2013-02-07 00:37:00,
2013-02-06 19:42:00,36.7,29.8,30.30,NW,322,0.0,0.0,76,0.00,,,0.00,0,Wunderground v.1.15,2013-02-07 00:42:00,
2013-02-06 19:47:00,37.1,29.9,30.31,NW,322,0.0,1.0,75,0.00,,,0.00,0,Wunderground v.1.15,2013-02-07 00:47:00,
2013-02-06 19:52:00,36.9,29.4,30.31,NW,322,0.0,0.0,74,0.00,,,0.00,0,Wunderground v.1.15,2013-02-07 00:52:00,
2013-02-06 19:57:00,35.7,28.9,30.31,NW,322,0.0,0.0,76,0.00,,,0.00,0,Wunderground v.1.15,2013-02-07 00:57:00,
2013-02-06 20:02:00,34.7,28.2,30.32,NW,322,0.0,0.0,77,0.00,,,0.00,0,Wunderground v.1.15,2013-02-07 01:02:00,
2013-02-06 20:07:00,34.7,28.9,30.32,NW,322,0.0,0.0,79,0.00,,,0.00,0,Wunderground v.1.15,2013-02-07 01:07:00,
2013-02-06 20:12:00,34.5,28.7,30.32,NW,322,0.0,0.0,79,0.00,,,0.00,0,Wunderground v.1.15,2013-02-07 01:12:00,
2013-02-06 20:17:00,34.4,28.6,30.32,NW,322,0.0,0.0,79,0.00,,,0.00,0,Wunderground v.1.15,2013-02-07 01:17:00,
2013-02-06 20:22:00,34.3,28.8,30.32,NW,322,0.0,0.0,80,0.00,,,0.00,0,Wunderground v.1.15,2013-02-07 01:22:00,
2013-02-06 20:27:00,35.1,29.2,30.32,NW,322,0.0,0.0,79,0.00,,,0.00,0,Wunderground v.1.15,2013-02-07 01:27:00,
2013-02-06 20:32:00,35.6,29.1,30.32,NW,322,0.0,0.0,77,0.00,,,0.00,0,Wunderground v.1.15,2013-02-07 01:32:00,
2013-02-06 20:37:00,34.1,28.0,30.32,NW,322,0.0,0.0,78,0.00,,,0.00,0,Wunderground v.1.15,2013-02-07 01:37:00,
2013-02-06 20:42:00,32.8,27.6,30.32,NW,322,0.0,0.0,81,0.00,,,0.00,0,Wunderground v.1.15,2013-02-07 01:42:00,
2013-02-06 20:47:00,32.5,27.6,30.32,NW,322,0.0,0.0,82,0.00,,,0.00,0,Wunderground v.1.15,2013-02-07 01:47:00,
2013-02-06 20:52:00,33.6,28.4,30.33,NW,322,0.0,1.0,81,0.00,,,0.00,0,Wunderground v.1.15,2013-02-07 01:52:00,
2013-02-06 20:57:00,32.8,27.6,30.33,NW,322,0.0,1.0,81,0.00,,,0.00,0,Wunderground v.1.15,2013-02-07 01:57:00,
2013-02-06 21:02:00,32.3,27.7,30.33,NW,322,0.0,1.0,83,0.00,,,0.00,0,Wunderground v.1.15,2013-02-07 02:02:00,
2013-02-06 21:07:00,32.2,27.6,30.33,NW,322,0.0,1.0,83,0.00,,,0.00,0,Wunderground v.1.15,2013-02-07 02:07:00,
2013-02-06 21:11:00,32.0,27.4,30.34,NW,322,0.0,0.0,83,0.00,,,0.00,0,Wunderground v.1.15,2013-02-07 02:11:00,
2013-02-06 21:16:00,32.0,27.4,30.34,NW,322,0.0,0.0,83,0.00,,,0.00,0,Wunderground v.1.15,2013-02-07 02:16:00,
2013-02-06 21:22:00,31.6,27.0,30.34,NW,322,0.0,0.0,83,0.00,,,0.00,0,Wunderground v.1.15,2013-02-07 02:22:00,
2013-02-06 21:27:00,31.2,26.9,30.34,NW,322,0.0,0.0,84,0.00,,,0.00,0,Wunderground v.1.15,2013-02-07 02:27:00,
2013-02-06 21:32:00,30.9,26.6,30.35,NW,322,0.0,1.0,84,0.00,,,0.00,0,Wunderground v.1.15,2013-02-07 02:32:00,
2013-02-06 21:37:00,30.7,26.7,30.35,NW,322,0.0,1.0,85,0.00,,,0.00,0,Wunderground v.1.15,2013-02-07 02:37:00,
2013-02-06 21:42:00,32.5,28.8,30.35,ESE,110,2.0,9.0,86,0.00,,,0.00,0,Wunderground v.1.15,2013-02-07 02:42:00,
2013-02-06 21:47:00,36.3,29.8,30.35,ENE,63,2.0,9.0,77,0.00,,,0.00,0,Wunderground v.1.15,2013-02-07 02:47:00,
2013-02-06 21:52:00,38.4,29.8,30.34,ENE,61,1.0,4.0,71,0.00,,,0.00,0,Wunderground v.1.15,2013-02-07 02:52:00,
2013-02-06 21:57:00,39.2,29.5,30.34,ENE,67,2.0,5.0,68,0.00,,,0.00,0,Wunderground v.1.15,2013-02-07 02:57:00,
2013-02-06 22:02:00,38.6,29.3,30.35,ENE,67,0.0,1.0,69,0.00,,,0.00,0,Wunderground v.1.15,2013-02-07 03:02:00,
2013-02-06 22:07:00,39.7,30.0,30.34,East,93,0.0,3.0,68,0.00,,,0.00,0,Wunderground v.1.15,2013-02-07 03:07:00,
2013-02-06 22:12:00,40.1,30.4,30.34,East,93,1.0,1.0,68,0.00,,,0.00,0,Wunderground v.1.15,2013-02-07 03:12:00,
2013-02-06 22:17:00,40.1,30.0,30.33,ESE,106,2.0,3.0,67,0.00,,,0.00,0,Wunderground v.1.15,2013-02-07 03:17:00,
2013-02-06 22:22:00,39.8,30.5,30.33,East,97,1.0,2.0,69,0.00,,,0.00,0,Wunderground v.1.15,2013-02-07 03:22:00,
2013-02-06 22:27:00,39.7,30.4,30.33,ESE,112,2.0,2.0,69,0.00,,,0.00,0,Wunderground v.1.15,2013-02-07 03:27:00,
2013-02-06 22:32:00,39.4,30.8,30.33,ESE,116,2.0,2.0,71,0.00,,,0.00,0,Wunderground v.1.15,2013-02-07 03:32:00,
2013-02-06 22:37:00,39.8,31.5,30.33,East,92,2.0,3.0,72,0.00,,,0.00,0,Wunderground v.1.15,2013-02-07 03:37:00,
2013-02-06 22:42:00,40.1,32.1,30.34,ESE,116,2.0,3.0,73,0.00,,,0.00,0,Wunderground v.1.15,2013-02-07 03:42:00,
2013-02-06 22:47:00,39.8,32.2,30.34,East,94,2.0,5.0,74,0.00,,,0.00,0,Wunderground v.1.15,2013-02-07 03:47:00,
2013-02-06 22:52:00,40.0,32.7,30.34,East,100,2.0,3.0,75,0.00,,,0.00,0,Wunderground v.1.15,2013-02-07 03:52:00,
2013-02-06 22:57:00,40.0,32.7,30.34,ESE,121,5.0,7.0,75,0.00,,,0.00,0,Wunderground v.1.15,2013-02-07 03:57:00,
2013-02-06 23:02:00,39.7,32.8,30.35,ESE,112,2.0,3.0,76,0.00,,,0.00,0,Wunderground v.1.15,2013-02-07 04:02:00,
2013-02-06 23:07:00,39.8,33.2,30.35,ESE,111,3.0,7.0,77,0.00,,,0.00,0,Wunderground v.1.15,2013-02-07 04:07:00,
2013-02-06 23:12:00,39.7,33.1,30.35,ESE,116,2.0,3.0,77,0.00,,,0.00,0,Wunderground v.1.15,2013-02-07 04:12:00,
2013-02-06 23:17:00,39.7,33.4,30.35,ENE,60,5.0,5.0,78,0.00,,,0.00,0,Wunderground v.1.15,2013-02-07 04:17:00,
2013-02-06 23:22:00,40.0,33.4,30.35,East,98,1.0,5.0,77,0.00,,,0.00,0,Wunderground v.1.15,2013-02-07 04:22:00,
2013-02-06 23:27:00,40.0,33.4,30.35,ENE,75,3.0,6.0,77,0.00,,,0.00,0,Wunderground v.1.15,2013-02-07 04:27:00,
2013-02-06 23:32:00,39.9,33.6,30.36,ESE,103,2.0,4.0,78,0.00,,,0.00,0,Wunderground v.1.15,2013-02-07 04:32:00,
2013-02-06 23:37:00,39.2,32.9,30.36,ESE,122,2.0,4.0,78,0.00,,,0.00,0,Wunderground v.1.15,2013-02-07 04:37:00,
2013-02-06 23:42:00,38.5,32.6,30.37,ESE,117,0.0,2.0,79,0.00,,,0.00,0,Wunderground v.1.15,2013-02-07 04:42:00,
2013-02-06 23:47:00,38.5,32.9,30.38,ESE,117,2.0,2.0,80,0.00,,,0.00,0,Wunderground v.1.15,2013-02-07 04:47:00,
2013-02-06 23:52:00,38.9,33.3,30.38,ENE,78,3.0,3.0,80,0.00,,,0.00,0,Wunderground v.1.15,2013-02-07 04:52:00,
2013-02-06 23:57:00,39.1,33.1,30.38,East,86,1.0,4.0,79,0.00,,,0.00,0,Wunderground v.1.15,2013-02-07 04:57:00,